createdAt,value
2017-09-29T00:00:57.366Z,13.47
2017-09-29T00:01:57.412Z,13.47
2017-09-29T00:02:57.423Z,13.46
2017-09-29T00:03:57.411Z,13.42
2017-09-29T00:04:57.359Z,13.39
2017-09-29T00:05:57.336Z,13.38
2017-09-29T00:06:57.414Z,13.34
2017-09-29T00:07:57.342Z,13.31
2017-09-29T00:08:57.357Z,13.29
2017-09-29T00:09:57.362Z,13.28
2017-09-29T00:10:57.329Z,13.27
2017-09-29T00:11:57.402Z,13.23
2017-09-29T00:12:57.317Z,13.20
2017-09-29T00:13:57.361Z,13.18
2017-09-29T00:14:57.367Z,13.14
2017-09-29T00:15:57.391Z,13.12
2017-09-29T00:16:57.415Z,13.07
2017-09-29T00:17:57.386Z,13.05
2017-09-29T00:18:57.374Z,13.00
2017-09-29T00:19:57.370Z,12.98
2017-09-29T00:20:57.410Z,12.95
2017-09-29T00:21:57.345Z,12.92
2017-09-29T00:22:57.368Z,12.91
2017-09-29T00:23:57.379Z,12.89
2017-09-29T00:24:57.439Z,12.86
2017-09-29T00:25:57.381Z,12.84
2017-09-29T00:26:57.440Z,12.84
2017-09-29T00:27:57.380Z,12.84
2017-09-29T00:28:57.451Z,12.83
2017-09-29T00:29:57.380Z,12.82
2017-09-29T00:30:57.430Z,12.80
2017-09-29T00:31:57.452Z,12.77
2017-09-29T00:32:57.384Z,12.79
2017-09-29T00:33:57.350Z,12.80
2017-09-29T00:34:57.398Z,12.77
2017-09-29T00:35:57.382Z,12.77
2017-09-29T00:36:57.352Z,12.77
2017-09-29T00:37:57.386Z,12.73
2017-09-29T00:38:57.356Z,12.72
2017-09-29T00:39:57.332Z,12.72
2017-09-29T00:40:57.348Z,12.71
2017-09-29T00:41:57.340Z,12.68
2017-09-29T00:42:57.370Z,12.65
2017-09-29T00:43:57.396Z,12.65
2017-09-29T00:44:57.451Z,12.62
2017-09-29T00:45:57.397Z,12.61
2017-09-29T00:46:57.452Z,12.60
2017-09-29T00:47:57.396Z,12.57
2017-09-29T00:48:57.480Z,12.55
2017-09-29T00:49:57.392Z,12.53
2017-09-29T00:50:57.461Z,12.54
2017-09-29T00:51:57.461Z,12.54
2017-09-29T00:52:57.394Z,12.53
2017-09-29T00:53:57.388Z,12.51
2017-09-29T00:54:57.342Z,12.50
2017-09-29T00:55:57.444Z,12.50
2017-09-29T00:56:57.343Z,12.51
2017-09-29T00:57:57.368Z,12.54
2017-09-29T00:58:57.428Z,12.54
2017-09-29T00:59:57.438Z,12.53
2017-09-29T01:00:57.429Z,12.53
2017-09-29T01:01:57.447Z,12.53
2017-09-29T01:02:57.397Z,12.51
2017-09-29T01:03:57.463Z,12.53
2017-09-29T01:04:57.407Z,12.53
2017-09-29T01:05:57.463Z,12.54
2017-09-29T01:06:57.406Z,12.57
2017-09-29T01:07:57.468Z,12.61
2017-09-29T01:08:57.408Z,12.65
2017-09-29T01:09:57.410Z,12.69
2017-09-29T01:10:57.474Z,12.73
2017-09-29T01:11:57.413Z,12.79
2017-09-29T01:12:57.469Z,12.82
2017-09-29T01:13:57.449Z,12.87
2017-09-29T01:14:57.469Z,12.91
2017-09-29T01:15:57.417Z,12.94
2017-09-29T01:16:57.472Z,12.96
2017-09-29T01:17:57.410Z,12.96
2017-09-29T01:18:57.481Z,12.98
2017-09-29T01:19:57.437Z,12.96
2017-09-29T01:20:57.473Z,12.99
2017-09-29T01:21:57.411Z,13.00
2017-09-29T01:22:57.480Z,13.03
2017-09-29T01:23:57.421Z,13.05
2017-09-29T01:24:57.364Z,13.05
2017-09-29T01:25:57.407Z,13.05
2017-09-29T01:26:57.443Z,13.02
2017-09-29T01:27:57.377Z,13.02
2017-09-29T01:28:57.351Z,13.05
2017-09-29T01:29:57.385Z,13.05
2017-09-29T01:30:57.406Z,13.06
2017-09-29T01:31:57.459Z,13.07
2017-09-29T01:32:57.392Z,13.09
2017-09-29T01:33:57.466Z,13.07
2017-09-29T01:34:57.479Z,13.07
2017-09-29T01:35:57.419Z,13.06
2017-09-29T01:36:57.484Z,13.06
2017-09-29T01:37:57.429Z,13.07
2017-09-29T01:38:57.482Z,13.09
2017-09-29T01:39:57.480Z,13.10
2017-09-29T01:40:57.488Z,13.07
2017-09-29T01:41:57.447Z,13.06
2017-09-29T01:42:57.423Z,13.05
2017-09-29T01:43:57.491Z,13.02
2017-09-29T01:44:57.473Z,13.00
2017-09-29T01:45:57.485Z,13.02
2017-09-29T01:46:57.429Z,12.99
2017-09-29T01:47:57.486Z,12.99
2017-09-29T01:48:57.476Z,12.98
2017-09-29T01:49:57.433Z,12.96
2017-09-29T01:50:57.492Z,12.98
2017-09-29T01:51:57.433Z,12.95
2017-09-29T01:52:57.490Z,12.96
2017-09-29T01:53:57.364Z,12.95
2017-09-29T01:54:57.401Z,12.95
2017-09-29T01:55:57.398Z,12.92
2017-09-29T01:56:57.366Z,12.92
2017-09-29T01:57:57.356Z,12.91
2017-09-29T01:58:57.403Z,12.89
2017-09-29T01:59:57.365Z,12.87
2017-09-29T02:00:57.378Z,12.91
2017-09-29T02:01:57.451Z,12.87
2017-09-29T02:02:57.380Z,12.87
2017-09-29T02:03:57.401Z,12.89
2017-09-29T02:04:57.452Z,12.87
2017-09-29T02:05:57.407Z,12.89
2017-09-29T02:06:57.407Z,12.87
2017-09-29T02:07:57.409Z,12.87
2017-09-29T02:08:57.405Z,12.89
2017-09-29T02:09:57.363Z,12.89
2017-09-29T02:10:57.388Z,12.91
2017-09-29T02:11:57.373Z,12.91
2017-09-29T02:12:57.374Z,12.96
2017-09-29T02:13:57.443Z,12.98
2017-09-29T02:14:57.506Z,13.00
2017-09-29T02:15:57.445Z,13.00
2017-09-29T02:16:57.507Z,13.02
2017-09-29T02:17:57.441Z,12.99
2017-09-29T02:18:57.526Z,12.98
2017-09-29T02:19:57.492Z,12.96
2017-09-29T02:20:57.505Z,12.96
2017-09-29T02:21:57.475Z,12.98
2017-09-29T02:22:57.505Z,12.96
2017-09-29T02:23:57.448Z,12.98
2017-09-29T02:24:57.442Z,12.96
2017-09-29T02:25:57.497Z,12.95
2017-09-29T02:26:57.444Z,12.96
2017-09-29T02:27:57.513Z,12.95
2017-09-29T02:28:57.452Z,12.95
2017-09-29T02:29:57.517Z,12.95
2017-09-29T02:30:57.454Z,12.99
2017-09-29T02:31:57.459Z,13.00
2017-09-29T02:32:57.454Z,13.02
2017-09-29T02:33:57.503Z,13.02
2017-09-29T02:34:57.457Z,12.99
2017-09-29T02:35:57.518Z,12.99
2017-09-29T02:36:57.462Z,12.96
2017-09-29T02:37:57.519Z,12.95
2017-09-29T02:38:57.455Z,12.95
2017-09-29T02:39:57.522Z,12.94
2017-09-29T02:40:57.520Z,12.94
2017-09-29T02:41:57.517Z,12.91
2017-09-29T02:42:57.466Z,12.89
2017-09-29T02:43:57.492Z,12.87
2017-09-29T02:44:57.491Z,12.84
2017-09-29T02:45:57.456Z,12.84
2017-09-29T02:46:57.406Z,12.86
2017-09-29T02:47:57.491Z,12.84
2017-09-29T02:48:57.472Z,12.87
2017-09-29T02:49:57.498Z,12.84
2017-09-29T02:50:57.500Z,12.86
2017-09-29T02:51:57.454Z,12.83
2017-09-29T02:52:57.500Z,12.82
2017-09-29T02:53:57.508Z,12.80
2017-09-29T02:54:57.465Z,12.79
2017-09-29T02:55:57.400Z,12.79
2017-09-29T02:56:57.422Z,12.77
2017-09-29T02:57:57.437Z,12.79
2017-09-29T02:58:57.440Z,12.80
2017-09-29T02:59:57.435Z,12.79
2017-09-29T03:00:57.496Z,12.79
2017-09-29T03:01:57.487Z,12.79
2017-09-29T03:02:57.454Z,12.75
2017-09-29T03:03:57.400Z,12.72
2017-09-29T03:04:57.487Z,12.68
2017-09-29T03:05:57.475Z,12.62
2017-09-29T03:06:57.472Z,12.58
2017-09-29T03:07:57.488Z,12.54
2017-09-29T03:08:57.437Z,12.47
2017-09-29T03:09:57.493Z,12.43
2017-09-29T03:10:57.422Z,12.37
2017-09-29T03:11:57.446Z,12.32
2017-09-29T03:12:57.496Z,12.31
2017-09-29T03:13:57.407Z,12.29
2017-09-29T03:14:57.444Z,12.29
2017-09-29T03:15:57.469Z,12.29
2017-09-29T03:16:57.516Z,12.25
2017-09-29T03:17:57.468Z,12.28
2017-09-29T03:18:57.521Z,12.24
2017-09-29T03:19:57.447Z,12.21
2017-09-29T03:20:57.514Z,12.20
2017-09-29T03:21:57.518Z,12.18
2017-09-29T03:22:57.429Z,12.13
2017-09-29T03:23:57.417Z,12.12
2017-09-29T03:24:57.487Z,12.09
2017-09-29T03:25:57.551Z,12.05
2017-09-29T03:26:57.482Z,12.06
2017-09-29T03:27:57.546Z,12.02
2017-09-29T03:28:57.490Z,11.99
2017-09-29T03:29:57.551Z,11.95
2017-09-29T03:30:57.487Z,11.91
2017-09-29T03:31:57.487Z,11.89
2017-09-29T03:32:57.536Z,11.87
2017-09-29T03:33:57.553Z,11.86
2017-09-29T03:34:57.548Z,11.82
2017-09-29T03:35:57.487Z,11.79
2017-09-29T03:36:57.554Z,11.83
2017-09-29T03:37:57.493Z,11.83
2017-09-29T03:38:57.493Z,11.83
2017-09-29T03:39:57.559Z,11.82
2017-09-29T03:40:57.493Z,11.82
2017-09-29T03:41:57.559Z,11.80
2017-09-29T03:42:57.496Z,11.78
2017-09-29T03:43:57.560Z,11.75
2017-09-29T03:44:57.491Z,11.71
2017-09-29T03:45:57.562Z,11.67
2017-09-29T03:46:57.498Z,11.64
2017-09-29T03:47:57.562Z,11.62
2017-09-29T03:48:57.564Z,11.58
2017-09-29T03:49:57.510Z,11.56
2017-09-29T03:50:57.547Z,11.51
2017-09-29T03:51:57.565Z,11.51
2017-09-29T03:52:57.505Z,11.47
2017-09-29T03:53:57.563Z,11.46
2017-09-29T03:54:57.448Z,11.45
2017-09-29T03:55:57.440Z,11.42
2017-09-29T03:56:57.469Z,11.43
2017-09-29T03:57:57.475Z,11.42
2017-09-29T03:58:57.497Z,11.40
2017-09-29T03:59:57.472Z,11.39
2017-09-29T04:00:57.475Z,11.40
2017-09-29T04:01:57.496Z,11.43
2017-09-29T04:02:57.477Z,11.49
2017-09-29T04:03:57.546Z,11.60
2017-09-29T04:04:57.513Z,11.62
2017-09-29T04:05:57.439Z,11.61
2017-09-29T04:06:57.448Z,11.57
2017-09-29T04:07:57.473Z,11.53
2017-09-29T04:08:57.481Z,11.58
2017-09-29T04:09:57.444Z,11.57
2017-09-29T04:10:57.605Z,11.60
2017-09-29T04:11:57.530Z,11.54
2017-09-29T04:12:57.516Z,11.53
2017-09-29T04:13:57.445Z,11.49
2017-09-29T04:14:57.515Z,11.45
2017-09-29T04:15:57.582Z,11.40
2017-09-29T04:16:57.518Z,11.38
2017-09-29T04:17:57.466Z,11.33
2017-09-29T04:18:57.513Z,11.31
2017-09-29T04:19:57.514Z,11.25
2017-09-29T04:20:57.570Z,11.21
2017-09-29T04:21:57.515Z,11.20
2017-09-29T04:22:57.569Z,11.21
2017-09-29T04:23:57.560Z,11.25
2017-09-29T04:24:57.580Z,11.27
2017-09-29T04:25:57.524Z,11.29
2017-09-29T04:26:57.627Z,11.27
2017-09-29T04:27:57.527Z,11.22
2017-09-29T04:28:57.568Z,11.18
2017-09-29T04:29:57.582Z,11.16
2017-09-29T04:30:57.529Z,11.13
2017-09-29T04:31:57.520Z,11.10
2017-09-29T04:32:57.585Z,11.05
2017-09-29T04:33:57.531Z,11.02
2017-09-29T04:34:57.558Z,11.00
2017-09-29T04:35:57.475Z,11.02
2017-09-29T04:36:57.476Z,11.02
2017-09-29T04:37:57.558Z,11.02
2017-09-29T04:38:57.576Z,11.00
2017-09-29T04:39:57.591Z,10.98
2017-09-29T04:40:57.481Z,10.97
2017-09-29T04:41:57.522Z,10.95
2017-09-29T04:42:57.517Z,10.91
2017-09-29T04:43:57.476Z,10.88
2017-09-29T04:44:57.505Z,10.84
2017-09-29T04:45:57.539Z,10.81
2017-09-29T04:46:57.495Z,10.79
2017-09-29T04:47:57.503Z,10.79
2017-09-29T04:48:57.541Z,10.75
2017-09-29T04:49:57.578Z,10.74
2017-09-29T04:50:57.558Z,10.71
2017-09-29T04:51:57.569Z,10.72
2017-09-29T04:52:57.499Z,10.72
2017-09-29T04:53:57.495Z,10.71
2017-09-29T04:54:57.510Z,10.69
2017-09-29T04:55:57.533Z,10.79
2017-09-29T04:56:57.556Z,10.86
2017-09-29T04:57:57.504Z,10.87
2017-09-29T04:58:57.536Z,10.84
2017-09-29T04:59:57.505Z,10.84
2017-09-29T05:00:57.559Z,10.84
2017-09-29T05:01:57.563Z,10.84
2017-09-29T05:02:57.496Z,10.81
2017-09-29T05:03:57.640Z,10.77
2017-09-29T05:04:57.473Z,10.72
2017-09-29T05:05:57.545Z,10.69
2017-09-29T05:06:57.509Z,10.64
2017-09-29T05:07:57.480Z,10.60
2017-09-29T05:08:57.507Z,10.58
2017-09-29T05:09:57.512Z,10.54
2017-09-29T05:10:57.481Z,10.53
2017-09-29T05:11:57.493Z,10.56
2017-09-29T05:12:57.486Z,10.57
2017-09-29T05:13:57.549Z,10.56
2017-09-29T05:14:57.572Z,10.57
2017-09-29T05:15:57.596Z,10.58
2017-09-29T05:16:57.613Z,10.58
2017-09-29T05:17:57.635Z,10.61
2017-09-29T05:18:57.600Z,10.63
2017-09-29T05:19:57.552Z,10.65
2017-09-29T05:20:57.616Z,10.65
2017-09-29T05:21:57.550Z,10.65
2017-09-29T05:22:57.616Z,10.63
2017-09-29T05:23:57.622Z,10.60
2017-09-29T05:24:57.564Z,10.56
2017-09-29T05:25:57.553Z,10.52
2017-09-29T05:26:57.527Z,10.46
2017-09-29T05:27:57.589Z,10.42
2017-09-29T05:28:57.550Z,10.42
2017-09-29T05:29:57.564Z,10.43
2017-09-29T05:30:57.557Z,10.45
2017-09-29T05:31:57.554Z,10.42
2017-09-29T05:32:57.566Z,10.47
2017-09-29T05:33:57.551Z,10.56
2017-09-29T05:34:57.564Z,10.58
2017-09-29T05:35:57.494Z,10.60
2017-09-29T05:36:57.524Z,10.60
2017-09-29T05:37:57.533Z,10.61
2017-09-29T05:38:57.696Z,10.63
2017-09-29T05:39:57.526Z,10.61
2017-09-29T05:40:57.531Z,10.61
2017-09-29T05:41:57.558Z,10.61
2017-09-29T05:42:57.532Z,10.61
2017-09-29T05:43:57.502Z,10.58
2017-09-29T05:44:57.517Z,10.61
2017-09-29T05:45:57.616Z,10.67
2017-09-29T05:46:57.565Z,10.75
2017-09-29T05:47:57.566Z,10.81
2017-09-29T05:48:57.609Z,10.90
2017-09-29T05:49:57.564Z,10.97
2017-09-29T05:50:57.614Z,11.00
2017-09-29T05:51:57.619Z,11.05
2017-09-29T05:52:57.612Z,11.09
2017-09-29T05:53:57.619Z,11.16
2017-09-29T05:54:57.567Z,11.22
2017-09-29T05:55:57.523Z,11.29
2017-09-29T05:56:57.617Z,11.38
2017-09-29T05:57:57.574Z,11.35
2017-09-29T05:58:57.526Z,11.29
2017-09-29T05:59:57.575Z,11.25
2017-09-29T06:00:57.572Z,11.21
2017-09-29T06:01:57.620Z,11.20
2017-09-29T06:02:57.592Z,11.17
2017-09-29T06:03:57.571Z,11.16
2017-09-29T06:04:57.580Z,11.16
2017-09-29T06:05:57.542Z,11.13
2017-09-29T06:06:57.610Z,11.11
2017-09-29T06:07:57.541Z,11.10
2017-09-29T06:08:57.554Z,11.09
2017-09-29T06:09:57.571Z,11.07
2017-09-29T06:10:57.586Z,11.10
2017-09-29T06:11:57.591Z,11.10
2017-09-29T06:12:57.558Z,11.13
2017-09-29T06:13:57.560Z,11.14
2017-09-29T06:14:57.529Z,11.17
2017-09-29T06:15:57.592Z,11.20
2017-09-29T06:16:57.530Z,11.18
2017-09-29T06:17:57.594Z,11.20
2017-09-29T06:18:57.544Z,11.21
2017-09-29T06:19:57.593Z,11.22
2017-09-29T06:20:57.531Z,11.25
2017-09-29T06:21:57.626Z,11.25
2017-09-29T06:22:57.527Z,11.28
2017-09-29T06:23:57.625Z,11.28
2017-09-29T06:24:57.588Z,11.31
2017-09-29T06:25:57.653Z,11.33
2017-09-29T06:26:57.669Z,11.33
2017-09-29T06:27:57.675Z,11.36
2017-09-29T06:28:57.594Z,11.42
2017-09-29T06:29:57.590Z,11.43
2017-09-29T06:30:57.594Z,11.47
2017-09-29T06:31:57.632Z,11.50
2017-09-29T06:32:57.598Z,11.56
2017-09-29T06:33:57.593Z,11.58
2017-09-29T06:34:57.578Z,11.61
2017-09-29T06:35:57.600Z,11.69
2017-09-29T06:36:57.576Z,11.76
2017-09-29T06:37:57.577Z,11.84
2017-09-29T06:38:57.577Z,11.95
2017-09-29T06:39:57.595Z,12.01
2017-09-29T06:40:57.666Z,12.08
2017-09-29T06:41:57.643Z,12.16
2017-09-29T06:42:57.593Z,12.28
2017-09-29T06:43:57.551Z,12.42
2017-09-29T06:44:57.564Z,12.53
2017-09-29T06:45:57.603Z,12.62
2017-09-29T06:46:57.568Z,12.71
2017-09-29T06:47:57.607Z,12.79
2017-09-29T06:48:57.538Z,12.86
2017-09-29T06:49:57.577Z,12.92
2017-09-29T06:50:57.570Z,13.00
2017-09-29T06:51:57.544Z,13.06
2017-09-29T06:52:57.609Z,13.10
2017-09-29T06:53:57.568Z,13.17
2017-09-29T06:54:57.549Z,13.21
2017-09-29T06:55:57.626Z,13.29
2017-09-29T06:56:57.573Z,13.34
2017-09-29T06:57:57.557Z,13.36
2017-09-29T06:58:57.579Z,13.42
2017-09-29T06:59:57.624Z,13.49
2017-09-29T07:00:57.577Z,13.51
2017-09-29T07:01:57.661Z,13.62
2017-09-29T07:02:57.604Z,13.73
2017-09-29T07:03:57.622Z,13.86
2017-09-29T07:04:57.583Z,13.99
2017-09-29T07:05:57.617Z,14.02
2017-09-29T07:06:57.678Z,14.10
2017-09-29T07:07:57.614Z,14.06
2017-09-29T07:08:57.645Z,14.11
2017-09-29T07:09:57.664Z,14.20
2017-09-29T07:10:57.677Z,14.25
2017-09-29T07:11:57.627Z,14.24
2017-09-29T07:12:57.597Z,14.14
2017-09-29T07:13:57.662Z,14.10
2017-09-29T07:14:57.579Z,14.14
2017-09-29T07:15:57.538Z,14.27
2017-09-29T07:16:57.585Z,14.33
2017-09-29T07:17:57.588Z,14.40
2017-09-29T07:18:57.546Z,14.46
2017-09-29T07:19:57.654Z,14.40
2017-09-29T07:20:57.585Z,14.40
2017-09-29T07:21:57.543Z,14.49
2017-09-29T07:22:57.575Z,14.53
2017-09-29T07:23:57.628Z,14.55
2017-09-29T07:24:57.564Z,14.62
2017-09-29T07:25:57.589Z,14.78
2017-09-29T07:26:57.646Z,14.87
2017-09-29T07:27:57.563Z,15.00
2017-09-29T07:28:57.628Z,15.14
2017-09-29T07:29:57.594Z,15.22
2017-09-29T07:30:57.596Z,15.13
2017-09-29T07:31:57.623Z,15.14
2017-09-29T07:32:57.629Z,15.26
2017-09-29T07:33:57.626Z,15.40
2017-09-29T07:34:57.676Z,15.42
2017-09-29T07:35:57.661Z,15.48
2017-09-29T07:36:57.599Z,15.39
2017-09-29T07:37:57.702Z,15.39
2017-09-29T07:38:57.626Z,15.36
2017-09-29T07:39:57.686Z,15.35
2017-09-29T07:40:57.630Z,15.42
2017-09-29T07:41:57.682Z,15.42
2017-09-29T07:42:57.594Z,15.47
2017-09-29T07:43:57.720Z,15.53
2017-09-29T07:44:57.614Z,15.62
2017-09-29T07:45:57.674Z,15.68
2017-09-29T07:46:57.603Z,15.86
2017-09-29T07:47:57.677Z,15.93
2017-09-29T07:48:57.650Z,15.86
2017-09-29T07:49:57.679Z,15.84
2017-09-29T07:50:57.601Z,15.94
2017-09-29T07:51:57.581Z,15.94
2017-09-29T07:52:57.645Z,15.94
2017-09-29T07:53:57.688Z,16.03
2017-09-29T07:54:57.644Z,16.03
2017-09-29T07:55:57.589Z,15.99
2017-09-29T07:56:57.645Z,15.97
2017-09-29T07:57:57.696Z,15.95
2017-09-29T07:58:57.625Z,16.02
2017-09-29T07:59:57.695Z,16.11
2017-09-29T08:00:57.594Z,16.17
2017-09-29T08:01:57.644Z,16.17
2017-09-29T08:02:57.650Z,16.25
2017-09-29T08:03:57.644Z,16.31
2017-09-29T08:04:57.619Z,16.32
2017-09-29T08:05:57.614Z,16.35
2017-09-29T08:06:57.653Z,16.46
2017-09-29T08:07:57.612Z,16.48
2017-09-29T08:08:57.571Z,16.57
2017-09-29T08:09:57.588Z,16.62
2017-09-29T08:10:57.606Z,16.66
2017-09-29T08:11:57.659Z,16.76
2017-09-29T08:12:57.566Z,16.88
2017-09-29T08:13:57.568Z,16.94
2017-09-29T08:14:57.692Z,17.06
2017-09-29T08:15:57.598Z,17.16
2017-09-29T08:16:57.689Z,17.25
2017-09-29T08:17:57.608Z,17.33
2017-09-29T08:18:57.654Z,17.40
2017-09-29T08:19:57.646Z,17.46
2017-09-29T08:20:57.697Z,17.53
2017-09-29T08:21:57.600Z,17.47
2017-09-29T08:22:57.690Z,17.44
2017-09-29T08:23:57.641Z,17.47
2017-09-29T08:24:57.628Z,17.43
2017-09-29T08:25:57.663Z,17.44
2017-09-29T08:26:57.596Z,17.47
2017-09-29T08:27:57.606Z,17.50
2017-09-29T08:28:57.662Z,17.58
2017-09-29T08:29:57.625Z,17.58
2017-09-29T08:30:57.634Z,17.53
2017-09-29T08:31:57.601Z,17.58
2017-09-29T08:32:57.634Z,17.58
2017-09-29T08:33:57.635Z,17.57
2017-09-29T08:34:57.663Z,17.53
2017-09-29T08:35:57.682Z,17.50
2017-09-29T08:36:57.738Z,17.50
2017-09-29T08:37:57.668Z,17.51
2017-09-29T08:38:57.668Z,17.47
2017-09-29T08:39:57.712Z,17.43
2017-09-29T08:40:57.664Z,17.43
2017-09-29T08:41:57.669Z,17.42
2017-09-29T08:42:57.684Z,17.36
2017-09-29T08:43:57.745Z,17.31
2017-09-29T08:44:57.636Z,17.28
2017-09-29T08:45:57.608Z,17.29
2017-09-29T08:46:57.670Z,17.32
2017-09-29T08:47:57.674Z,17.31
2017-09-29T08:48:57.678Z,17.29
2017-09-29T08:49:57.672Z,17.28
2017-09-29T08:50:57.608Z,17.25
2017-09-29T08:51:57.613Z,17.22
2017-09-29T08:52:57.640Z,17.26
2017-09-29T08:53:57.648Z,17.28
2017-09-29T08:54:57.879Z,17.29
2017-09-29T08:55:57.673Z,17.32
2017-09-29T08:56:57.755Z,17.31
2017-09-29T08:57:57.726Z,17.28
2017-09-29T08:58:57.682Z,17.26
2017-09-29T08:59:57.658Z,17.28
2017-09-29T09:00:57.729Z,17.25
2017-09-29T09:01:57.629Z,17.25
2017-09-29T09:02:57.679Z,17.24
2017-09-29T09:03:57.726Z,17.24
2017-09-29T09:04:57.746Z,17.22
2017-09-29T09:05:57.728Z,17.26
2017-09-29T09:06:57.692Z,17.26
2017-09-29T09:07:57.664Z,17.31
2017-09-29T09:08:57.685Z,17.33
2017-09-29T09:09:57.681Z,17.32
2017-09-29T09:10:57.759Z,17.29
2017-09-29T09:11:57.666Z,17.26
2017-09-29T09:12:57.689Z,17.28
2017-09-29T09:13:57.669Z,17.31
2017-09-29T09:14:57.695Z,17.33
2017-09-29T09:15:57.625Z,17.39
2017-09-29T09:16:57.600Z,17.43
2017-09-29T09:17:57.658Z,17.47
2017-09-29T09:18:57.642Z,17.53
2017-09-29T09:19:57.702Z,17.54
2017-09-29T09:20:57.655Z,17.53
2017-09-29T09:21:57.628Z,17.53
2017-09-29T09:22:57.666Z,17.54
2017-09-29T09:23:57.657Z,17.60
2017-09-29T09:24:57.662Z,17.54
2017-09-29T09:25:57.638Z,17.54
2017-09-29T09:26:57.704Z,17.54
2017-09-29T09:27:57.661Z,17.54
2017-09-29T09:28:57.654Z,17.53
2017-09-29T09:29:57.732Z,17.60
2017-09-29T09:30:57.731Z,17.64
2017-09-29T09:31:57.707Z,17.71
2017-09-29T09:32:57.644Z,17.72
2017-09-29T09:33:57.653Z,17.71
2017-09-29T09:34:57.743Z,17.73
2017-09-29T09:35:57.747Z,17.80
2017-09-29T09:36:57.685Z,17.84
2017-09-29T09:37:57.704Z,17.84
2017-09-29T09:38:57.750Z,17.83
2017-09-29T09:39:57.660Z,17.75
2017-09-29T09:40:57.717Z,17.76
2017-09-29T09:41:57.704Z,17.79
2017-09-29T09:42:57.708Z,17.79
2017-09-29T09:43:57.704Z,17.75
2017-09-29T09:44:57.662Z,17.77
2017-09-29T09:45:57.662Z,17.79
2017-09-29T09:46:57.704Z,17.79
2017-09-29T09:47:57.779Z,17.79
2017-09-29T09:48:57.751Z,17.84
2017-09-29T09:49:57.708Z,17.88
2017-09-29T09:50:57.785Z,17.91
2017-09-29T09:51:57.709Z,17.98
2017-09-29T09:52:57.716Z,18.03
2017-09-29T09:53:57.782Z,18.06
2017-09-29T09:54:57.660Z,18.03
2017-09-29T09:55:57.686Z,17.98
2017-09-29T09:56:57.711Z,17.98
2017-09-29T09:57:57.662Z,17.96
2017-09-29T09:58:57.694Z,17.95
2017-09-29T09:59:57.724Z,18.00
2017-09-29T10:00:57.731Z,17.99
2017-09-29T10:01:57.760Z,17.98
2017-09-29T10:02:57.729Z,17.99
2017-09-29T10:03:57.697Z,17.96
2017-09-29T10:04:57.728Z,17.96
2017-09-29T10:05:57.694Z,17.95
2017-09-29T10:06:57.767Z,17.98
2017-09-29T10:07:57.728Z,18.00
2017-09-29T10:08:57.770Z,18.06
2017-09-29T10:09:57.676Z,18.07
2017-09-29T10:10:57.668Z,18.13
2017-09-29T10:11:57.678Z,18.12
2017-09-29T10:12:57.722Z,18.14
2017-09-29T10:13:57.769Z,18.13
2017-09-29T10:14:57.688Z,18.16
2017-09-29T10:15:57.696Z,18.23
2017-09-29T10:16:57.691Z,18.28
2017-09-29T10:17:57.693Z,18.34
2017-09-29T10:18:57.729Z,18.38
2017-09-29T10:19:57.693Z,18.43
2017-09-29T10:20:57.680Z,18.50
2017-09-29T10:21:57.695Z,18.55
2017-09-29T10:22:57.732Z,18.52
2017-09-29T10:23:57.670Z,18.52
2017-09-29T10:24:57.669Z,18.50
2017-09-29T10:25:57.697Z,18.52
2017-09-29T10:26:57.732Z,18.55
2017-09-29T10:27:57.698Z,18.54
2017-09-29T10:28:57.680Z,18.55
2017-09-29T10:29:57.671Z,18.62
2017-09-29T10:30:57.698Z,18.57
2017-09-29T10:31:57.739Z,18.50
2017-09-29T10:32:57.702Z,18.48
2017-09-29T10:33:57.733Z,18.46
2017-09-29T10:34:57.702Z,18.46
2017-09-29T10:35:57.783Z,18.52
2017-09-29T10:36:57.804Z,18.55
2017-09-29T10:37:57.785Z,18.65
2017-09-29T10:38:57.695Z,18.72
2017-09-29T10:39:57.722Z,18.79
2017-09-29T10:40:57.748Z,18.86
2017-09-29T10:41:57.696Z,18.95
2017-09-29T10:42:57.782Z,19.02
2017-09-29T10:43:57.747Z,19.08
2017-09-29T10:44:57.697Z,19.08
2017-09-29T10:45:57.678Z,18.99
2017-09-29T10:46:57.682Z,18.98
2017-09-29T10:47:57.706Z,18.98
2017-09-29T10:48:57.712Z,19.03
2017-09-29T10:49:57.682Z,19.08
2017-09-29T10:50:57.684Z,19.17
2017-09-29T10:51:57.712Z,19.25
2017-09-29T10:52:57.716Z,19.31
2017-09-29T10:53:57.710Z,19.24
2017-09-29T10:54:57.753Z,19.21
2017-09-29T10:55:57.763Z,19.19
2017-09-29T10:56:57.751Z,19.21
2017-09-29T10:57:57.748Z,19.28
2017-09-29T10:58:57.824Z,19.32
2017-09-29T10:59:57.734Z,19.36
2017-09-29T11:00:57.803Z,19.32
2017-09-29T11:01:57.748Z,19.36
2017-09-29T11:02:57.751Z,19.38
2017-09-29T11:03:57.800Z,19.38
2017-09-29T11:04:57.802Z,19.38
2017-09-29T11:05:57.724Z,19.29
2017-09-29T11:06:57.769Z,19.32
2017-09-29T11:07:57.713Z,19.35
2017-09-29T11:08:57.791Z,19.24
2017-09-29T11:09:57.811Z,19.25
2017-09-29T11:10:57.775Z,19.29
2017-09-29T11:11:57.735Z,19.27
2017-09-29T11:12:57.729Z,19.29
2017-09-29T11:13:57.759Z,19.32
2017-09-29T11:14:57.813Z,19.32
2017-09-29T11:15:57.636Z,19.35
2017-09-29T11:16:57.696Z,19.33
2017-09-29T11:17:57.642Z,19.36
2017-09-29T11:18:57.696Z,19.43
2017-09-29T11:19:57.710Z,19.44
2017-09-29T11:20:57.715Z,19.44
2017-09-29T11:21:57.681Z,19.28
2017-09-29T11:22:57.680Z,19.19
2017-09-29T11:23:57.698Z,19.27
2017-09-29T11:24:57.697Z,19.29
2017-09-29T11:25:57.769Z,19.33
2017-09-29T11:26:57.766Z,19.35
2017-09-29T11:27:57.723Z,19.43
2017-09-29T11:28:57.752Z,19.42
2017-09-29T11:29:57.770Z,19.51
2017-09-29T11:30:57.772Z,19.62
2017-09-29T11:31:57.822Z,19.61
2017-09-29T11:32:57.846Z,19.57
2017-09-29T11:33:57.791Z,19.51
2017-09-29T11:34:57.729Z,19.55
2017-09-29T11:35:57.775Z,19.55
2017-09-29T11:36:57.818Z,19.65
2017-09-29T11:37:57.841Z,19.72
2017-09-29T11:38:57.759Z,19.72
2017-09-29T11:39:57.829Z,19.74
2017-09-29T11:40:57.790Z,19.84
2017-09-29T11:41:57.783Z,19.91
2017-09-29T11:42:57.779Z,19.94
2017-09-29T11:43:57.826Z,19.91
2017-09-29T11:44:57.850Z,19.85
2017-09-29T11:45:57.745Z,19.74
2017-09-29T11:46:57.847Z,19.77
2017-09-29T11:47:57.780Z,19.81
2017-09-29T11:48:57.836Z,19.79
2017-09-29T11:49:57.748Z,19.79
2017-09-29T11:50:57.761Z,19.83
2017-09-29T11:51:57.846Z,19.81
2017-09-29T11:52:57.804Z,19.76
2017-09-29T11:53:57.859Z,19.68
2017-09-29T11:54:57.765Z,19.60
2017-09-29T11:55:57.831Z,19.51
2017-09-29T11:56:57.788Z,19.46
2017-09-29T11:57:57.741Z,19.39
2017-09-29T11:58:57.751Z,19.42
2017-09-29T11:59:57.830Z,19.40
2017-09-29T12:00:57.854Z,19.47
2017-09-29T12:01:57.798Z,19.53
2017-09-29T12:02:57.790Z,19.61
2017-09-29T12:03:57.760Z,19.66
2017-09-29T12:04:57.840Z,19.74
2017-09-29T12:05:57.842Z,19.81
2017-09-29T12:06:57.776Z,19.90
2017-09-29T12:07:57.834Z,19.94
2017-09-29T12:08:57.745Z,20.03
2017-09-29T12:09:57.847Z,20.17
2017-09-29T12:10:57.840Z,20.27
2017-09-29T12:11:57.844Z,20.21
2017-09-29T12:12:57.798Z,20.16
2017-09-29T12:13:57.844Z,20.10
2017-09-29T12:14:57.801Z,20.16
2017-09-29T12:15:57.806Z,20.20
2017-09-29T12:16:57.815Z,20.25
2017-09-29T12:17:57.825Z,20.32
2017-09-29T12:18:57.767Z,20.46
2017-09-29T12:19:57.768Z,20.60
2017-09-29T12:20:57.814Z,20.76
2017-09-29T12:21:57.813Z,20.65
2017-09-29T12:22:57.850Z,20.54
2017-09-29T12:23:57.770Z,20.53
2017-09-29T12:24:57.776Z,20.61
2017-09-29T12:25:57.760Z,20.82
2017-09-29T12:26:57.807Z,21.02
2017-09-29T12:27:57.742Z,21.21
2017-09-29T12:28:57.775Z,21.34
2017-09-29T12:29:57.805Z,21.53
2017-09-29T12:30:57.751Z,21.56
2017-09-29T12:31:57.771Z,21.73
2017-09-29T12:32:57.762Z,21.89
2017-09-29T12:33:57.772Z,22.19
2017-09-29T12:34:57.781Z,22.46
2017-09-29T12:35:57.743Z,22.60
2017-09-29T12:36:57.807Z,22.54
2017-09-29T12:37:57.774Z,22.60
2017-09-29T12:38:57.771Z,22.77
2017-09-29T12:39:57.774Z,22.50
2017-09-29T12:40:57.753Z,22.43
2017-09-29T12:41:57.741Z,22.53
2017-09-29T12:42:57.807Z,22.30
2017-09-29T12:43:57.812Z,22.12
2017-09-29T12:44:57.778Z,22.04
2017-09-29T12:45:57.833Z,21.98
2017-09-29T12:46:57.818Z,22.14
2017-09-29T12:47:57.751Z,22.25
2017-09-29T12:48:57.749Z,22.27
2017-09-29T12:49:57.753Z,22.30
2017-09-29T12:50:57.812Z,22.24
2017-09-29T12:51:57.813Z,22.34
2017-09-29T12:52:57.754Z,22.60